Time;durP1;ratioP1;P1;durP2;ratioP2;P2;SDS_P1;SDS_P2;PMS_P1;PMS_P2;Temp;Humidity;BMP_temperature;BMP_pressure;BME280_temperature;BME280_humidity;BME280_pressure;Samples;Min_cycle;Max_cycle;Signal;HPM_P1;HPM_P2
2021/12/02 00:01:00;;;;;;;6.00;1.10;;;1.40;99.90;;;;;;5054206;28;20041;-79
2021/12/02 00:03:26;;;;;;;8.90;1.80;;;1.30;99.90;;;;;;5054056;28;20418;-79
2021/12/02 00:05:53;;;;;;;10.47;0.77;;;1.30;99.90;;;;;;5037284;28;20052;-79
2021/12/02 00:08:19;;;;;;;10.87;0.90;;;1.00;99.90;;;;;;5037133;28;20045;-87
2021/12/02 00:10:45;;;;;;;7.93;0.93;;;0.90;99.90;;;;;;5037607;28;20135;-79
2021/12/02 00:13:12;;;;;;;5.90;1.33;;;0.80;99.90;;;;;;5020809;28;20041;-86
2021/12/02 00:15:48;;;;;;;7.37;0.90;;;0.80;99.90;;;;;;5054115;28;20048;-80
2021/12/02 00:23:35;;;;;;;7.20;1.13;;;0.50;99.90;;;;;;5053626;28;20053;-79
2021/12/02 00:26:09;;;;;;;5.17;0.53;;;0.60;99.90;;;;;;5053933;28;20072;-79
2021/12/02 00:28:36;;;;;;;;;;;0.50;99.90;;;;;;5054338;28;20128;-87
2021/12/02 00:31:02;;;;;;;7.73;0.53;;;0.90;99.90;;;;;;5053899;28;20291;-86
2021/12/02 00:33:30;;;;;;;14.73;1.00;;;1.10;99.90;;;;;;5053573;28;20041;-78
2021/12/02 00:35:56;;;;;;;18.10;1.73;;;1.60;99.90;;;;;;5036828;28;20090;-85
2021/12/02 00:38:24;;;;;;;12.00;1.07;;;2.30;99.90;;;;;;5053969;28;20055;-88
2021/12/02 00:40:51;;;;;;;7.30;0.80;;;2.60;99.90;;;;;;5036895;28;20045;-78
2021/12/02 00:43:17;;;;;;;6.57;1.27;;;2.60;99.90;;;;;;5020311;28;20064;-79
2021/12/02 00:45:44;;;;;;;2.07;0.40;;;2.60;99.90;;;;;;5053167;28;20079;-79
2021/12/02 00:48:12;;;;;;;2.37;0.20;;;2.50;99.90;;;;;;5036646;28;20084;-85
2021/12/02 00:50:48;;;;;;;1.60;0.20;;;2.40;99.90;;;;;;5053582;28;20468;-88
2021/12/02 00:53:22;;;;;;;2.20;0.20;;;2.30;99.90;;;;;;5036657;28;20041;-79
2021/12/02 00:55:49;;;;;;;2.17;0.23;;;2.30;99.90;;;;;;5036589;28;20073;-80
2021/12/02 00:58:20;;;;;;;1.50;0.30;;;2.20;99.90;;;;;;5036413;28;20045;-86
2021/12/02 01:00:52;;;;;;;2.30;0.50;;;2.30;99.90;;;;;;5036601;28;20037;-78
2021/12/02 01:03:20;;;;;;;4.97;0.43;;;2.70;99.90;;;;;;5052902;28;20041;-83
2021/12/02 01:05:46;;;;;;;1.83;0.30;;;3.10;99.90;;;;;;5035912;28;20386;-82
2021/12/02 01:08:12;;;;;;;6.00;1.17;;;3.20;99.90;;;;;;5052735;28;20053;-78
2021/12/02 01:10:40;;;;;;;2.53;0.47;;;3.30;99.90;;;;;;5052873;28;20040;-79
2021/12/02 01:13:07;;;;;;;4.90;0.47;;;3.10;99.90;;;;;;5052774;28;20091;-80
2021/12/02 01:15:33;;;;;;;8.30;1.47;;;2.80;99.90;;;;;;5036416;28;20049;-86
2021/12/02 01:17:58;;;;;;;2.78;0.40;;;2.70;99.90;;;;;;5035949;28;20527;-86
2021/12/02 01:20:25;;;;;;;9.88;1.70;;;2.60;99.90;;;;;;5052274;28;20545;-87
2021/12/02 01:22:52;;;;;;;4.07;0.57;;;2.60;99.90;;;;;;5036085;28;20182;-80
2021/12/02 01:25:19;;;;;;;4.70;0.70;;;2.60;99.90;;;;;;5052646;28;20178;-78
2021/12/02 01:27:48;;;;;;;14.93;1.53;;;2.80;99.90;;;;;;5052427;28;20051;-79
2021/12/02 01:30:14;;;;;;;6.77;0.73;;;2.70;99.90;;;;;;5052507;28;20053;-79
2021/12/02 01:32:41;;;;;;;5.07;0.68;;;2.90;99.90;;;;;;5035754;28;20052;-80
2021/12/02 01:35:08;;;;;;;8.32;0.70;;;2.50;99.90;;;;;;5036089;28;20364;-79
2021/12/02 01:37:34;;;;;;;7.30;0.68;;;2.90;99.90;;;;;;5019095;28;20128;-79
2021/12/02 01:40:00;;;;;;;6.35;0.85;;;2.50;99.90;;;;;;5052241;28;20132;-79
2021/12/02 01:42:28;;;;;;;5.87;0.70;;;2.60;99.90;;;;;;5035605;28;20052;-86
2021/12/02 01:44:57;;;;;;;14.20;1.30;;;2.40;99.90;;;;;;5052182;28;20049;-86
2021/12/02 01:47:25;;;;;;;11.52;1.25;;;2.70;99.90;;;;;;5035909;28;20396;-86
2021/12/02 01:49:58;;;;;;;13.47;1.07;;;2.70;99.90;;;;;;5035766;28;20558;-87
2021/12/02 01:52:30;;;;;;;7.95;0.93;;;2.60;99.90;;;;;;5052095;28;20033;-86
2021/12/02 01:55:17;;;;;;;3.95;0.50;;;2.60;99.90;;;;;;5052053;28;20044;-79
2021/12/02 01:58:04;;;;;;;15.48;1.70;;;2.20;99.90;;;;;;5018740;28;20056;-80
2021/12/02 02:00:43;;;;;;;7.07;0.70;;;2.00;99.90;;;;;;5035421;28;20045;-79
2021/12/02 02:03:11;;;;;;;4.80;0.70;;;2.20;99.90;;;;;;5035181;28;20135;-79
2021/12/02 02:05:38;;;;;;;16.80;1.27;;;2.10;99.90;;;;;;5051762;28;20373;-85
2021/12/02 02:08:13;;;;;;;6.10;0.87;;;1.80;99.90;;;;;;5051812;28;20055;-86
2021/12/02 02:10:41;;;;;;;6.33;0.73;;;1.70;99.90;;;;;;5051991;28;20265;-80
2021/12/02 02:13:09;;;;;;;4.17;0.50;;;1.90;99.90;;;;;;5018882;28;20052;-86
2021/12/02 02:15:42;;;;;;;6.87;0.80;;;1.50;99.90;;;;;;5051860;28;20048;-85
2021/12/02 02:18:17;;;;;;;5.90;0.40;;;1.70;99.90;;;;;;5051983;28;20055;-79
2021/12/02 02:20:59;;;;;;;6.40;1.30;;;1.40;99.90;;;;;;5036793;28;20530;-87
2021/12/02 02:23:28;;;;;;;6.70;1.20;;;1.80;99.90;;;;;;5051595;28;20183;-87
2021/12/02 02:25:55;;;;;;;3.63;0.90;;;1.80;99.90;;;;;;5035278;28;20052;-80
2021/12/02 02:28:20;;;;;;;6.23;0.63;;;2.10;99.90;;;;;;5035085;28;20049;-80
2021/12/02 02:30:47;;;;;;;5.30;0.40;;;2.40;99.90;;;;;;5035310;28;20438;-87
2021/12/02 02:33:14;;;;;;;2.70;0.77;;;1.90;99.90;;;;;;5018839;28;20483;-87
2021/12/02 02:35:42;;;;;;;4.17;0.37;;;2.40;99.90;;;;;;5051735;28;20511;-86
2021/12/02 02:38:09;;;;;;;5.23;0.60;;;1.90;99.90;;;;;;5034737;28;20056;-86
2021/12/02 02:40:38;;;;;;;4.07;0.35;;;2.00;99.90;;;;;;5051792;28;20041;-86
2021/12/02 02:43:08;;;;;;;1.10;0.17;;;1.80;99.90;;;;;;5035211;28;20150;-79
2021/12/02 02:45:36;;;;;;;4.20;0.30;;;2.30;99.90;;;;;;5035395;28;20411;-86
2021/12/02 02:48:02;;;;;;;2.10;0.40;;;1.90;99.90;;;;;;5051238;28;20051;-80
2021/12/02 02:50:30;;;;;;;0.40;0.35;;;2.10;99.90;;;;;;5018327;28;20041;-85
2021/12/02 02:53:20;;;;;;;2.43;0.20;;;2.40;99.90;;;;;;5051544;28;20048;-78
2021/12/02 02:55:56;;;;;;;1.10;0.17;;;1.90;99.90;;;;;;5035812;28;20099;-78
2021/12/02 03:01:16;;;;;;;0.57;0.10;;;2.20;99.90;;;;;;5035063;28;20515;-82
2021/12/02 03:03:54;;;;;;;;;;;2.00;99.90;;;;;;5051639;28;20049;-83
2021/12/02 03:06:37;;;;;;;1.50;0.63;;;2.00;99.90;;;;;;5034334;28;20019;-84
2021/12/02 03:09:13;;;;;;;3.47;0.00;;;1.80;99.90;;;;;;5051202;28;20045;-77
2021/12/02 03:11:51;;;;;;;4.83;0.60;;;1.80;99.90;;;;;;5051402;28;20484;-76
2021/12/02 03:14:28;;;;;;;1.00;0.00;;;1.50;99.90;;;;;;5051113;28;20091;-82
2021/12/02 03:16:53;;;;;;;2.33;0.13;;;1.50;99.90;;;;;;5051055;28;20075;-83
2021/12/02 03:19:25;;;;;;;3.00;0.10;;;1.20;99.90;;;;;;5050970;28;20049;-83
2021/12/02 03:21:51;;;;;;;0.33;0.00;;;1.20;99.90;;;;;;5034436;28;20145;-77
2021/12/02 03:24:18;;;;;;;1.70;0.23;;;1.10;99.90;;;;;;5034378;28;20051;-78
2021/12/02 03:26:43;;;;;;;0.77;0.10;;;0.90;99.90;;;;;;5018387;28;20510;-83
2021/12/02 03:29:09;;;;;;;1.37;0.00;;;0.90;99.90;;;;;;5034434;28;20128;-76
2021/12/02 03:31:35;;;;;;;1.60;0.20;;;0.70;99.90;;;;;;5034937;28;20041;-82
2021/12/02 03:34:03;;;;;;;1.90;0.10;;;0.20;99.90;;;;;;5051155;28;20048;-77
2021/12/02 03:36:29;;;;;;;1.30;0.10;;;0.10;99.90;;;;;;5034816;28;20122;-77
2021/12/02 03:38:55;;;;;;;3.87;0.00;;;0.40;99.90;;;;;;5051177;28;20041;-82
2021/12/02 03:41:21;;;;;;;0.70;0.10;;;0.60;99.90;;;;;;5018110;28;20107;-82
2021/12/02 03:43:48;;;;;;;3.43;0.20;;;0.20;99.90;;;;;;5036992;28;20037;-77
2021/12/02 03:46:17;;;;;;;5.87;0.47;;;0.60;99.90;;;;;;5021941;28;20487;-77
2021/12/02 03:48:43;;;;;;;1.07;0.13;;;0.40;99.90;;;;;;5054748;28;20048;-82
2021/12/02 03:51:10;;;;;;;1.23;0.10;;;0.40;99.90;;;;;;5054617;28;20041;-76
2021/12/02 03:53:36;;;;;;;4.43;0.37;;;0.60;99.90;;;;;;5054655;28;20484;-81
2021/12/02 03:56:03;;;;;;;8.70;1.80;;;1.20;99.90;;;;;;5037704;28;20056;-84
2021/12/02 03:58:29;;;;;;;4.10;0.20;;;0.90;99.90;;;;;;5037630;28;20049;-83
2021/12/02 04:00:55;;;;;;;1.03;0.10;;;0.50;99.90;;;;;;5021144;28;20087;-83
2021/12/02 04:03:21;;;;;;;5.87;0.23;;;1.30;99.90;;;;;;5054394;28;20048;-77
2021/12/02 04:05:47;;;;;;;2.00;0.20;;;0.50;99.90;;;;;;5037273;28;20100;-78
2021/12/02 04:08:12;;;;;;;4.73;1.20;;;0.60;99.90;;;;;;5037482;28;20044;-77
2021/12/02 04:10:40;;;;;;;0.53;0.10;;;1.30;99.90;;;;;;5037895;28;20458;-84
2021/12/02 04:15:39;;;;;;;1.00;0.10;;;0.70;99.90;;;;;;5054093;28;20045;-82
2021/12/02 04:18:05;;;;;;;0.90;0.20;;;1.00;99.90;;;;;;5021699;28;20045;-77
2021/12/02 04:20:31;;;;;;;1.30;0.10;;;1.20;99.90;;;;;;5021317;28;20083;-77
2021/12/02 04:22:57;;;;;;;2.50;0.20;;;0.80;99.90;;;;;;5053954;28;20088;-84
2021/12/02 04:25:25;;;;;;;1.80;0.20;;;0.90;99.90;;;;;;5037453;28;20047;-77
2021/12/02 04:27:51;;;;;;;0.47;0.10;;;1.30;99.90;;;;;;5053854;28;20506;-77
2021/12/02 04:30:20;;;;;;;0.90;0.00;;;1.40;99.90;;;;;;5053939;28;20037;-77
2021/12/02 04:32:46;;;;;;;1.87;0.17;;;1.50;99.90;;;;;;5053555;28;20045;-83
2021/12/02 04:35:12;;;;;;;2.93;0.50;;;0.90;99.90;;;;;;5053607;28;20041;-83
2021/12/02 04:37:39;;;;;;;3.20;0.30;;;1.10;99.90;;;;;;5036954;28;20431;-77
2021/12/02 04:40:05;;;;;;;5.20;0.83;;;1.30;99.90;;;;;;5053455;28;20071;-78
2021/12/02 04:42:31;;;;;;;4.73;0.30;;;1.70;99.90;;;;;;5036750;28;20041;-82
2021/12/02 04:44:57;;;;;;;1.57;0.20;;;1.20;99.90;;;;;;5053361;28;20519;-77
2021/12/02 04:47:23;;;;;;;3.13;0.20;;;1.30;99.90;;;;;;5036650;28;20093;-77
2021/12/02 04:49:49;;;;;;;3.50;0.30;;;1.90;99.90;;;;;;5036754;28;20076;-77
2021/12/02 04:52:15;;;;;;;4.53;0.30;;;1.10;99.90;;;;;;5053338;28;20037;-83
2021/12/02 04:54:40;;;;;;;2.17;0.40;;;1.10;99.90;;;;;;5019073;28;20047;-83
2021/12/02 04:57:06;;;;;;;2.20;0.10;;;1.00;99.90;;;;;;5036508;28;20128;-82
2021/12/02 04:59:32;;;;;;;2.83;0.20;;;0.90;99.90;;;;;;5053073;28;20085;-77
2021/12/02 05:01:58;;;;;;;7.07;0.43;;;0.90;99.90;;;;;;5036334;28;20499;-83
2021/12/02 05:04:24;;;;;;;2.43;0.30;;;1.40;99.90;;;;;;5053052;28;20518;-77
2021/12/02 05:06:49;;;;;;;4.07;0.20;;;1.50;99.90;;;;;;5052748;28;20462;-77
2021/12/02 05:09:15;;;;;;;2.63;0.20;;;1.50;99.90;;;;;;5036551;28;20040;-83
2021/12/02 05:11:41;;;;;;;1.97;0.67;;;1.70;99.90;;;;;;5053053;28;20052;-77
2021/12/02 05:14:08;;;;;;;3.00;0.20;;;1.30;99.90;;;;;;5036602;28;20048;-80
2021/12/02 05:16:35;;;;;;;2.70;0.07;;;1.80;99.90;;;;;;5036006;28;20044;-78
2021/12/02 05:19:01;;;;;;;4.27;0.37;;;1.20;99.90;;;;;;5052771;28;20049;-83
2021/12/02 05:21:27;;;;;;;1.73;0.20;;;1.60;99.90;;;;;;5036315;28;20063;-78
2021/12/02 05:23:54;;;;;;;2.47;0.10;;;1.80;99.90;;;;;;5052933;28;20041;-82
2021/12/02 05:26:24;;;;;;;3.13;0.13;;;1.40;99.90;;;;;;5036390;28;20057;-78
2021/12/02 05:28:52;;;;;;;1.93;0.27;;;1.30;99.90;;;;;;5036280;28;20513;-83
2021/12/02 05:31:19;;;;;;;1.90;0.10;;;1.20;99.90;;;;;;5052726;28;20041;-81
2021/12/02 05:33:45;;;;;;;4.53;0.20;;;1.10;99.90;;;;;;5036122;28;20577;-84
2021/12/02 05:36:10;;;;;;;2.73;0.10;;;0.70;99.90;;;;;;5052758;28;20403;-84
2021/12/02 05:38:38;;;;;;;5.50;0.30;;;0.70;99.90;;;;;;5036053;28;20051;-84
2021/12/02 05:41:04;;;;;;;2.40;0.20;;;0.70;99.90;;;;;;5036235;28;20546;-79
2021/12/02 05:43:30;;;;;;;0.50;0.10;;;1.30;99.90;;;;;;5052466;28;20570;-77
2021/12/02 05:45:56;;;;;;;2.23;0.10;;;1.00;99.90;;;;;;5035578;28;20037;-83
2021/12/02 05:48:22;;;;;;;0.73;0.00;;;1.10;99.90;;;;;;5051997;28;20131;-78
2021/12/02 05:50:49;;;;;;;5.77;0.20;;;1.10;99.90;;;;;;5035488;28;20045;-83
2021/12/02 05:53:21;;;;;;;2.47;0.10;;;1.30;99.90;;;;;;5052253;28;20041;-83
2021/12/02 05:55:49;;;;;;;1.55;0.10;;;1.00;99.90;;;;;;5019263;28;20111;-79
2021/12/02 05:58:15;;;;;;;2.63;0.10;;;1.40;99.90;;;;;;5019221;28;20095;-84
2021/12/02 06:00:41;;;;;;;2.70;0.20;;;1.10;99.90;;;;;;5052375;28;20049;-84
2021/12/02 06:03:07;;;;;;;4.20;0.20;;;1.20;99.90;;;;;;5035271;28;20128;-84
2021/12/02 06:05:33;;;;;;;2.60;0.27;;;1.20;99.90;;;;;;5035278;28;20585;-78
2021/12/02 06:08:02;;;;;;;5.77;0.30;;;1.80;99.90;;;;;;5035764;28;20323;-84
2021/12/02 06:10:29;;;;;;;2.53;0.10;;;1.90;99.90;;;;;;5051890;28;20053;-84
2021/12/02 06:12:54;;;;;;;3.60;0.20;;;1.70;99.90;;;;;;5035070;28;20066;-83
2021/12/02 06:15:20;;;;;;;3.97;0.10;;;1.60;99.90;;;;;;5051878;28;20128;-83
2021/12/02 06:17:46;;;;;;;6.23;0.17;;;1.50;99.90;;;;;;5051526;28;20064;-84
2021/12/02 06:20:15;;;;;;;2.27;0.47;;;1.90;99.90;;;;;;5051611;28;20045;-83
2021/12/02 06:22:41;;;;;;;4.97;0.50;;;2.00;99.90;;;;;;5035004;28;20041;-78
2021/12/02 06:27:47;;;;;;;3.37;0.20;;;1.30;99.90;;;;;;5051860;28;20511;-78
2021/12/02 06:30:15;;;;;;;6.83;0.20;;;1.20;99.90;;;;;;5034822;28;20094;-83
2021/12/02 06:32:41;;;;;;;2.93;0.10;;;1.60;99.90;;;;;;5051320;28;20131;-78
2021/12/02 06:35:08;;;;;;;2.90;0.00;;;1.60;99.90;;;;;;5018814;28;20186;-84
2021/12/02 06:37:34;;;;;;;2.33;0.10;;;1.50;99.90;;;;;;5034643;28;20052;-78
2021/12/02 06:40:00;;;;;;;2.37;0.77;;;1.10;99.90;;;;;;5051384;28;20119;-84
2021/12/02 06:42:26;;;;;;;4.87;0.30;;;1.40;99.90;;;;;;5034948;28;20110;-78
2021/12/02 06:44:51;;;;;;;2.90;0.30;;;1.30;99.90;;;;;;5018381;28;20048;-84
2021/12/02 06:47:19;;;;;;;3.20;0.10;;;1.00;99.90;;;;;;5034822;28;20048;-83
2021/12/02 06:49:45;;;;;;;4.23;0.20;;;0.80;99.90;;;;;;5051622;28;20391;-83
2021/12/02 06:52:12;;;;;;;3.60;0.30;;;1.20;99.90;;;;;;5051209;28;20124;-83
2021/12/02 06:54:39;;;;;;;2.77;0.40;;;1.40;99.90;;;;;;5051527;28;20473;-83
2021/12/02 06:57:05;;;;;;;2.60;0.10;;;1.30;99.90;;;;;;5051127;28;20127;-78
2021/12/02 06:59:31;;;;;;;2.83;0.10;;;1.30;99.90;;;;;;5051555;28;20447;-83
2021/12/02 07:01:57;;;;;;;0.40;0.00;;;1.10;99.90;;;;;;5051302;28;20037;-84
2021/12/02 07:04:23;;;;;;;3.13;0.10;;;0.90;99.90;;;;;;5018442;28;20052;-78
2021/12/02 07:06:49;;;;;;;3.20;0.30;;;1.30;99.90;;;;;;5034383;28;20052;-83
2021/12/02 07:09:15;;;;;;;2.07;0.17;;;1.40;99.90;;;;;;5051315;28;20415;-83
2021/12/02 07:11:42;;;;;;;11.83;0.73;;;0.90;99.90;;;;;;5034665;28;20052;-78
2021/12/02 07:14:11;;;;;;;3.53;0.50;;;0.90;99.90;;;;;;5034743;28;20128;-78
2021/12/02 07:16:38;;;;;;;4.73;0.20;;;1.20;99.90;;;;;;5050997;28;20081;-78
2021/12/02 07:19:08;;;;;;;2.63;0.40;;;1.30;99.90;;;;;;5054298;28;20534;-78
2021/12/02 07:21:37;;;;;;;2.60;0.10;;;1.10;99.90;;;;;;5055393;28;20410;-84
2021/12/02 07:24:08;;;;;;;6.20;0.30;;;1.40;99.90;;;;;;5054981;28;20048;-78
2021/12/02 07:26:40;;;;;;;3.17;0.20;;;1.40;99.90;;;;;;5038548;28;20400;-84
2021/12/02 07:29:05;;;;;;;1.20;0.20;;;1.00;99.90;;;;;;5038143;28;20040;-78
2021/12/02 07:31:33;;;;;;;1.40;0.40;;;1.10;99.90;;;;;;5038141;28;20505;-84
2021/12/02 07:34:01;;;;;;;2.57;1.10;;;1.50;99.90;;;;;;5054584;28;20056;-84
2021/12/02 07:36:28;;;;;;;4.07;0.30;;;1.70;99.90;;;;;;5054889;28;20191;-79
2021/12/02 07:38:55;;;;;;;4.10;0.70;;;1.70;99.90;;;;;;5021833;28;20037;-84
2021/12/02 07:41:20;;;;;;;2.97;1.00;;;1.70;99.90;;;;;;5054400;28;20041;-79
2021/12/02 07:43:46;;;;;;;3.57;1.70;;;1.50;99.90;;;;;;5054519;28;20078;-83
2021/12/02 07:46:12;;;;;;;6.63;2.47;;;1.20;99.90;;;;;;5054739;28;20103;-81
2021/12/02 07:48:38;;;;;;;6.37;3.17;;;1.20;99.90;;;;;;5054387;28;20094;-78
2021/12/02 07:51:17;;;;;;;4.10;2.43;;;1.60;99.90;;;;;;5038175;28;20041;-78
2021/12/02 07:53:45;;;;;;;5.63;2.73;;;1.20;99.90;;;;;;5054606;28;20534;-82
2021/12/02 07:56:13;;;;;;;9.93;3.30;;;0.80;99.90;;;;;;5054263;28;20072;-83
2021/12/02 07:58:46;;;;;;;6.67;2.77;;;0.80;99.90;;;;;;5054183;28;20127;-82
2021/12/02 08:01:13;;;;;;;;;;;1.20;99.90;;;;;;5054969;28;20475;-79
2021/12/02 08:03:44;;;;;;;5.10;2.30;;;1.10;99.90;;;;;;5054086;28;19920;-83
2021/12/02 08:06:11;;;;;;;12.30;3.10;;;0.70;99.90;;;;;;5037514;28;20099;-82
2021/12/02 08:08:38;;;;;;;7.50;2.80;;;1.30;99.90;;;;;;5053994;28;20049;-77
2021/12/02 08:11:06;;;;;;;6.60;2.40;;;0.70;99.90;;;;;;5054144;28;20041;-78
2021/12/02 08:13:32;;;;;;;4.43;1.57;;;0.70;99.90;;;;;;5037218;28;20053;-82
2021/12/02 08:15:57;;;;;;;4.07;2.00;;;0.80;99.90;;;;;;5020860;28;20126;-78
2021/12/02 08:18:24;;;;;;;6.90;1.97;;;1.30;99.90;;;;;;5053765;28;20041;-82
2021/12/02 08:20:49;;;;;;;8.43;1.50;;;0.90;99.90;;;;;;5053825;28;20099;-84
2021/12/02 08:23:17;;;;;;;5.20;1.80;;;1.40;99.90;;;;;;5037045;28;20499;-77
2021/12/02 08:25:43;;;;;;;4.03;1.77;;;1.60;99.90;;;;;;5037807;28;20128;-83
2021/12/02 08:28:09;;;;;;;4.13;2.00;;;1.20;99.90;;;;;;5037352;28;20199;-78
2021/12/02 08:30:37;;;;;;;4.97;2.40;;;1.60;99.90;;;;;;5037117;28;20507;-82
2021/12/02 08:33:04;;;;;;;6.80;1.97;;;1.80;99.90;;;;;;5053500;28;20083;-82
2021/12/02 08:35:31;;;;;;;4.13;1.20;;;1.90;99.90;;;;;;5053616;28;20048;-78
2021/12/02 08:38:02;;;;;;;4.67;1.43;;;2.00;99.90;;;;;;5036764;28;20128;-79
2021/12/02 08:40:37;;;;;;;13.37;6.90;;;1.50;99.90;;;;;;5021126;28;20084;-82
2021/12/02 08:43:08;;;;;;;3.13;1.67;;;1.50;99.90;;;;;;5053658;28;20044;-78
2021/12/02 08:45:36;;;;;;;2.60;0.87;;;1.70;99.90;;;;;;5036865;28;20048;-83
2021/12/02 08:48:04;;;;;;;2.77;0.43;;;1.50;99.90;;;;;;5036703;28;20186;-82
2021/12/02 08:50:30;;;;;;;5.27;0.73;;;1.50;99.90;;;;;;5036957;28;20068;-83
2021/12/02 08:52:57;;;;;;;3.20;0.37;;;1.60;99.90;;;;;;5053083;28;20037;-82
2021/12/02 08:55:24;;;;;;;2.30;0.30;;;1.50;99.90;;;;;;5053071;28;20128;-83
2021/12/02 08:57:51;;;;;;;1.53;0.20;;;1.00;99.90;;;;;;5052998;28;20057;-82
2021/12/02 09:00:20;;;;;;;5.07;0.43;;;1.00;99.90;;;;;;5053196;28;20132;-78
2021/12/02 09:02:46;;;;;;;4.70;0.40;;;1.20;99.90;;;;;;5053005;28;20045;-78
2021/12/02 09:05:13;;;;;;;6.10;0.43;;;1.60;99.90;;;;;;5036236;28;20048;-78
2021/12/02 09:07:39;;;;;;;7.13;1.10;;;1.20;99.90;;;;;;5036414;28;20049;-78
2021/12/02 09:10:07;;;;;;;7.00;0.70;;;1.70;99.90;;;;;;5036265;28;20068;-83
2021/12/02 09:12:33;;;;;;;3.80;0.40;;;1.40;99.90;;;;;;5036442;28;20419;-83
2021/12/02 09:14:59;;;;;;;4.10;0.40;;;1.40;99.90;;;;;;5036167;28;20254;-79
2021/12/02 09:17:25;;;;;;;7.00;1.10;;;1.40;99.90;;;;;;5019429;28;20440;-78
2021/12/02 09:19:51;;;;;;;4.00;2.10;;;1.40;99.90;;;;;;5052872;28;20045;-82
2021/12/02 09:22:17;;;;;;;6.87;0.67;;;2.00;99.90;;;;;;5052459;28;20041;-79
2021/12/02 09:24:43;;;;;;;2.57;0.43;;;2.00;99.90;;;;;;5035883;28;20102;-83
2021/12/02 09:27:09;;;;;;;4.40;0.70;;;1.90;99.90;;;;;;5036156;28;20580;-79
2021/12/02 09:29:35;;;;;;;7.00;0.53;;;1.50;99.90;;;;;;5035907;28;20155;-79
2021/12/02 09:32:02;;;;;;;7.33;0.53;;;1.30;99.90;;;;;;5052261;28;20044;-82
2021/12/02 09:34:28;;;;;;;2.27;0.77;;;1.70;99.90;;;;;;5035858;28;20048;-81
2021/12/02 09:36:55;;;;;;;4.53;0.50;;;1.40;99.90;;;;;;5035719;28;20388;-82
2021/12/02 09:39:22;;;;;;;12.30;1.60;;;1.60;99.90;;;;;;5036017;28;20043;-78
2021/12/02 09:41:47;;;;;;;1.13;0.30;;;2.00;99.90;;;;;;5018935;28;20036;-79
2021/12/02 09:44:15;;;;;;;5.27;1.33;;;2.10;99.90;;;;;;5019050;28;20048;-83
2021/12/02 09:46:41;;;;;;;1.43;0.50;;;2.40;99.90;;;;;;5052187;28;20077;-83
2021/12/02 09:49:10;;;;;;;1.67;0.40;;;2.30;99.90;;;;;;5052280;28;20534;-84
2021/12/02 09:52:01;;;;;;;2.43;0.30;;;2.30;99.90;;;;;;5035564;28;20080;-81
2021/12/02 09:55:03;;;;;;;1.30;0.20;;;1.70;99.90;;;;;;5036010;28;20045;-84
2021/12/02 09:57:23;;;;;;;1.50;0.30;;;1.90;99.90;;;;;;5048015;28;20563;-80
2021/12/02 09:59:51;;;;;;;6.27;0.30;;;2.00;99.90;;;;;;5035841;28;20520;-82
2021/12/02 10:02:20;;;;;;;2.60;0.30;;;1.70;99.90;;;;;;5035513;28;20053;-79
2021/12/02 10:07:20;;;;;;;1.67;0.30;;;2.00;99.90;;;;;;5035429;28;20045;-83
2021/12/02 10:10:10;;;;;;;;;;;1.90;99.90;;;;;;5035634;28;20053;-84
2021/12/02 10:12:42;;;;;;;5.83;0.77;;;1.60;99.90;;;;;;5052117;28;19944;-83
2021/12/02 10:15:14;;;;;;;2.77;0.43;;;1.80;99.90;;;;;;5035537;28;20395;-80
2021/12/02 10:17:49;;;;;;;1.93;0.30;;;1.90;99.90;;;;;;5035991;28;20338;-84
2021/12/02 10:23:24;;;;;;;3.43;0.63;;;1.60;99.90;;;;;;5051602;28;20056;-80
2021/12/02 10:25:55;;;;;;;2.88;0.73;;;1.50;99.90;;;;;;5051823;28;20048;-83
2021/12/02 10:28:22;;;;;;;3.07;0.27;;;1.80;99.90;;;;;;5034968;28;20041;-84
2021/12/02 10:30:54;;;;;;;2.60;0.60;;;1.60;99.90;;;;;;5051681;28;20049;-85
2021/12/02 10:33:38;;;;;;;1.63;0.30;;;1.70;99.90;;;;;;5035225;28;20515;-80
2021/12/02 10:36:07;;;;;;;4.17;0.40;;;1.30;99.90;;;;;;5034798;28;20052;-84
2021/12/02 10:38:33;;;;;;;1.23;0.30;;;1.50;99.90;;;;;;5034745;28;20052;-79
2021/12/02 10:41:00;;;;;;;3.37;0.20;;;1.20;99.90;;;;;;5034939;28;20049;-85
2021/12/02 10:43:27;;;;;;;6.50;0.30;;;1.30;99.90;;;;;;5018735;28;20045;-79
2021/12/02 10:46:11;;;;;;;4.33;0.70;;;1.20;99.90;;;;;;5051575;28;20128;-83
2021/12/02 10:48:53;;;;;;;3.07;0.50;;;1.50;99.90;;;;;;5037268;28;20137;-84
2021/12/02 10:51:50;;;;;;;5.13;0.70;;;1.60;99.90;;;;;;5051478;28;20091;-85
2021/12/02 10:54:22;;;;;;;3.80;0.60;;;1.20;99.90;;;;;;5054809;28;20049;-79
2021/12/02 10:56:50;;;;;;;4.33;0.77;;;1.40;99.90;;;;;;5055332;28;20463;-84
2021/12/02 10:59:44;;;;;;;5.53;1.03;;;1.40;99.90;;;;;;5055347;28;20037;-85
2021/12/02 11:02:18;;;;;;;1.65;0.73;;;1.50;99.90;;;;;;5055593;28;20044;-80
2021/12/02 11:04:51;;;;;;;3.37;1.00;;;1.90;99.90;;;;;;5038735;28;20123;-81
2021/12/02 11:07:25;;;;;;;5.87;1.00;;;1.80;99.90;;;;;;5038601;28;20131;-86
2021/12/02 11:09:53;;;;;;;4.00;0.70;;;1.50;99.90;;;;;;5038875;28;20055;-85
2021/12/02 11:12:27;;;;;;;3.23;0.60;;;1.20;99.90;;;;;;5038309;28;20044;-80
2021/12/02 11:15:01;;;;;;;3.57;0.63;;;1.30;99.90;;;;;;5055103;28;20037;-80
2021/12/02 11:17:33;;;;;;;2.63;0.60;;;1.40;99.90;;;;;;5038430;28;20478;-81
2021/12/02 11:20:04;;;;;;;5.20;0.30;;;1.20;99.90;;;;;;5039264;28;20143;-80
2021/12/02 11:22:30;;;;;;;4.17;0.27;;;0.70;99.90;;;;;;5054896;28;20051;-79
2021/12/02 11:24:58;;;;;;;2.20;0.30;;;0.60;99.90;;;;;;5021863;28;20394;-80
2021/12/02 11:27:51;;;;;;;6.07;0.20;;;0.70;99.90;;;;;;5054874;28;20049;-79
2021/12/02 11:30:25;;;;;;;1.10;0.10;;;0.50;99.90;;;;;;5035582;28;20051;-83
2021/12/02 11:32:52;;;;;;;4.03;0.40;;;0.80;99.90;;;;;;5055159;28;20510;-83
2021/12/02 11:35:27;;;;;;;3.10;0.40;;;0.60;99.90;;;;;;5054764;28;20041;-79
2021/12/02 11:38:17;;;;;;;3.10;0.10;;;0.40;99.90;;;;;;5037907;28;20045;-78
2021/12/02 11:40:52;;;;;;;0.83;0.10;;;0.30;99.90;;;;;;5055065;28;20531;-78
2021/12/02 11:43:34;;;;;;;0.73;0.10;;;0.60;99.90;;;;;;5037858;28;20045;-83
2021/12/02 11:46:01;;;;;;;0.77;0.20;;;0.20;99.90;;;;;;5055022;28;20487;-83
2021/12/02 11:48:30;;;;;;;1.40;0.17;;;0.40;99.90;;;;;;5037895;28;20051;-79
2021/12/02 11:50:59;;;;;;;4.10;0.40;;;0.10;99.90;;;;;;5054535;28;20036;-79
2021/12/02 11:53:26;;;;;;;1.50;0.10;;;0.40;99.90;;;;;;5054272;28;20052;-83
2021/12/02 11:55:54;;;;;;;3.90;0.57;;;0.40;99.90;;;;;;5037882;28;20076;-82
2021/12/02 11:58:20;;;;;;;3.00;0.60;;;0.10;99.90;;;;;;5054155;28;20053;-82
2021/12/02 12:00:47;;;;;;;2.53;0.30;;;0.20;99.90;;;;;;5054439;28;20045;-83
2021/12/02 12:03:37;;;;;;;1.33;0.30;;;0.60;99.90;;;;;;5053864;28;20503;-79
2021/12/02 12:06:15;;;;;;;3.20;0.20;;;0.60;99.90;;;;;;5037495;28;20136;-79
2021/12/02 12:08:48;;;;;;;4.57;0.40;;;0.70;99.90;;;;;;5037443;28;20052;-83
2021/12/02 12:11:24;;;;;;;5.93;0.50;;;1.20;99.90;;;;;;5054209;28;20059;-84
2021/12/02 12:13:51;;;;;;;0.53;0.20;;;1.10;99.90;;;;;;5054243;28;20059;-79
2021/12/02 12:16:31;;;;;;;4.63;0.40;;;1.60;99.90;;;;;;5037805;28;20438;-79
2021/12/02 12:19:17;;;;;;;3.87;0.40;;;1.80;99.90;;;;;;5054078;28;20045;-85
2021/12/02 12:21:50;;;;;;;3.20;0.57;;;2.20;99.90;;;;;;5053955;28;20076;-84
2021/12/02 12:24:17;;;;;;;3.22;0.40;;;1.80;99.90;;;;;;5054091;28;20439;-85
2021/12/02 12:26:46;;;;;;;3.07;0.20;;;1.70;99.90;;;;;;5037292;28;20102;-85
2021/12/02 12:29:15;;;;;;;2.97;0.10;;;1.90;99.90;;;;;;5053846;28;20079;-79
2021/12/02 12:34:53;;;;;;;3.43;0.20;;;1.50;99.90;;;;;;5053448;28;20048;-80
2021/12/02 12:37:23;;;;;;;3.45;0.50;;;2.00;99.90;;;;;;5053493;28;20202;-84
2021/12/02 12:40:12;;;;;;;2.20;0.50;;;2.70;99.90;;;;;;5053566;28;20088;-83
2021/12/02 12:42:48;;;;;;;5.30;0.80;;;3.00;99.90;;;;;;5037151;28;20395;-83
2021/12/02 12:45:40;;;;;;;2.78;0.60;;;3.40;99.90;;;;;;5053746;28;20106;-80
2021/12/02 12:48:27;;;;;;;6.65;0.55;;;3.70;99.90;;;;;;5036670;28;20040;-80
2021/12/02 12:51:07;;;;;;;0.90;0.10;;;4.80;99.90;;;;;;5052908;28;20045;-80
2021/12/02 12:53:36;;;;;;;1.67;0.15;;;5.00;99.90;;;;;;5036964;28;20053;-85
2021/12/02 12:56:08;;;;;;;3.63;0.35;;;5.10;99.90;;;;;;5053537;28;20521;-85
2021/12/02 12:58:37;;;;;;;3.28;0.65;;;5.40;99.90;;;;;;5053418;28;20499;-85
2021/12/02 13:01:06;;;;;;;3.45;0.10;;;5.30;99.90;;;;;;5053525;28;20415;-81
2021/12/02 13:03:42;;;;;;;90.30;4.95;;;5.80;99.90;;;;;;5036270;28;20041;-80
2021/12/02 13:06:19;;;;;;;3.67;0.30;;;6.00;99.90;;;;;;5052922;28;20061;-85
2021/12/02 13:08:51;;;;;;;1.02;0.13;;;6.40;99.90;;;;;;5053040;28;20045;-80
2021/12/02 13:11:20;;;;;;;2.40;0.10;;;6.50;99.90;;;;;;5052814;28;20041;-80
2021/12/02 13:13:48;;;;;;;0.68;0.10;;;6.30;99.90;;;;;;5053189;28;20415;-81
2021/12/02 13:16:17;;;;;;;1.67;0.20;;;6.00;99.90;;;;;;5051896;28;20115;-85
2021/12/02 13:18:59;;;;;;;3.00;0.20;;;5.80;99.90;;;;;;5036226;28;20053;-83
2021/12/02 13:21:34;;;;;;;19.25;1.33;;;5.80;99.90;;;;;;5052987;28;20037;-79
2021/12/02 13:24:10;;;;;;;2.15;0.10;;;6.20;99.90;;;;;;5035984;28;20056;-84
2021/12/02 13:26:44;;;;;;;3.17;0.30;;;6.40;99.90;;;;;;5052600;28;20060;-80
2021/12/02 13:29:16;;;;;;;2.35;1.10;;;5.90;99.90;;;;;;5052802;28;20048;-84
2021/12/02 13:31:47;;;;;;;0.60;0.43;;;6.10;99.90;;;;;;5052570;28;20106;-81